sensor_id;sensor_type;location;lat;lon;timestamp;P1;durP1;ratioP1;P2;durP2;ratioP2
26223;SDS011;14820;48.682;8.890;2022-09-21T00:01:05;5.07;;;3.08;;
26223;SDS011;14820;48.682;8.890;2022-09-21T00:03:36;10.13;;;3.40;;
26223;SDS011;14820;48.682;8.890;2022-09-21T00:06:02;4.40;;;2.90;;
26223;SDS011;14820;48.682;8.890;2022-09-21T00:08:32;5.43;;;3.00;;
26223;SDS011;14820;48.682;8.890;2022-09-21T00:10:58;5.55;;;3.22;;
26223;SDS011;14820;48.682;8.890;2022-09-21T00:13:24;6.25;;;3.50;;
26223;SDS011;14820;48.682;8.890;2022-09-21T00:15:52;6.43;;;3.65;;
26223;SDS011;14820;48.682;8.890;2022-09-21T00:18:19;6.10;;;2.95;;
26223;SDS011;14820;48.682;8.890;2022-09-21T00:20:45;4.70;;;2.80;;
26223;SDS011;14820;48.682;8.890;2022-09-21T00:23:11;6.80;;;2.70;;
26223;SDS011;14820;48.682;8.890;2022-09-21T00:25:36;6.85;;;3.35;;
26223;SDS011;14820;48.682;8.890;2022-09-21T00:28:02;6.93;;;3.28;;
26223;SDS011;14820;48.682;8.890;2022-09-21T00:30:28;6.97;;;3.45;;
26223;SDS011;14820;48.682;8.890;2022-09-21T00:32:54;6.60;;;3.22;;
26223;SDS011;14820;48.682;8.890;2022-09-21T00:35:20;6.60;;;3.50;;
26223;SDS011;14820;48.682;8.890;2022-09-21T00:37:45;4.65;;;2.97;;
26223;SDS011;14820;48.682;8.890;2022-09-21T00:40:11;8.00;;;3.40;;
26223;SDS011;14820;48.682;8.890;2022-09-21T00:42:37;6.22;;;3.22;;
26223;SDS011;14820;48.682;8.890;2022-09-21T00:45:03;8.30;;;3.13;;
26223;SDS011;14820;48.682;8.890;2022-09-21T00:50:05;6.35;;;2.97;;
26223;SDS011;14820;48.682;8.890;2022-09-21T00:52:36;5.40;;;2.80;;
26223;SDS011;14820;48.682;8.890;2022-09-21T00:55:20;4.85;;;3.10;;
26223;SDS011;14820;48.682;8.890;2022-09-21T00:57:52;4.70;;;3.30;;
26223;SDS011;14820;48.682;8.890;2022-09-21T01:00:20;9.02;;;2.67;;
26223;SDS011;14820;48.682;8.890;2022-09-21T01:02:46;7.65;;;3.40;;
26223;SDS011;14820;48.682;8.890;2022-09-21T01:05:12;6.88;;;3.17;;
26223;SDS011;14820;48.682;8.890;2022-09-21T01:07:39;5.22;;;3.20;;
26223;SDS011;14820;48.682;8.890;2022-09-21T01:10:09;5.82;;;3.20;;
26223;SDS011;14820;48.682;8.890;2022-09-21T01:18:27;7.32;;;2.58;;
26223;SDS011;14820;48.682;8.890;2022-09-21T01:23:59;5.35;;;3.17;;
26223;SDS011;14820;48.682;8.890;2022-09-21T01:29:28;7.28;;;3.22;;
26223;SDS011;14820;48.682;8.890;2022-09-21T01:34:43;5.70;;;3.15;;
26223;SDS011;14820;48.682;8.890;2022-09-21T01:37:24;6.03;;;3.30;;
26223;SDS011;14820;48.682;8.890;2022-09-21T01:40:00;6.00;;;3.45;;
26223;SDS011;14820;48.682;8.890;2022-09-21T01:42:31;5.78;;;3.40;;
26223;SDS011;14820;48.682;8.890;2022-09-21T01:44:59;6.65;;;3.20;;
26223;SDS011;14820;48.682;8.890;2022-09-21T01:47:28;5.57;;;3.00;;
26223;SDS011;14820;48.682;8.890;2022-09-21T01:49:55;5.68;;;3.42;;
26223;SDS011;14820;48.682;8.890;2022-09-21T01:53:09;6.85;;;3.22;;
26223;SDS011;14820;48.682;8.890;2022-09-21T01:55:13;4.85;;;2.78;;
26223;SDS011;14820;48.682;8.890;2022-09-21T01:57:48;6.25;;;2.78;;
26223;SDS011;14820;48.682;8.890;2022-09-21T02:00:19;14.45;;;3.30;;
26223;SDS011;14820;48.682;8.890;2022-09-21T02:02:47;6.50;;;2.95;;
26223;SDS011;14820;48.682;8.890;2022-09-21T02:05:20;4.22;;;2.70;;
26223;SDS011;14820;48.682;8.890;2022-09-21T02:07:49;4.53;;;2.97;;
26223;SDS011;14820;48.682;8.890;2022-09-21T02:11:17;5.88;;;3.08;;
26223;SDS011;14820;48.682;8.890;2022-09-21T02:13:13;4.72;;;2.55;;
26223;SDS011;14820;48.682;8.890;2022-09-21T02:21:20;6.68;;;2.70;;
26223;SDS011;14820;48.682;8.890;2022-09-21T02:23:56;6.32;;;3.10;;
26223;SDS011;14820;48.682;8.890;2022-09-21T02:26:32;5.05;;;2.88;;
26223;SDS011;14820;48.682;8.890;2022-09-21T02:29:14;5.80;;;3.08;;
26223;SDS011;14820;48.682;8.890;2022-09-21T02:35:11;5.30;;;3.00;;
26223;SDS011;14820;48.682;8.890;2022-09-21T02:37:31;5.63;;;2.70;;
26223;SDS011;14820;48.682;8.890;2022-09-21T02:42:51;5.43;;;3.17;;
26223;SDS011;14820;48.682;8.890;2022-09-21T02:45:21;4.40;;;2.90;;
26223;SDS011;14820;48.682;8.890;2022-09-21T02:47:58;4.95;;;2.83;;
26223;SDS011;14820;48.682;8.890;2022-09-21T02:50:34;7.28;;;3.08;;
26223;SDS011;14820;48.682;8.890;2022-09-21T02:53:05;7.03;;;3.42;;
26223;SDS011;14820;48.682;8.890;2022-09-21T02:55:33;8.55;;;2.80;;
26223;SDS011;14820;48.682;8.890;2022-09-21T02:58:00;4.38;;;3.30;;
26223;SDS011;14820;48.682;8.890;2022-09-21T03:00:30;4.68;;;2.90;;
26223;SDS011;14820;48.682;8.890;2022-09-21T03:02:55;4.30;;;3.20;;
26223;SDS011;14820;48.682;8.890;2022-09-21T03:05:21;4.97;;;2.97;;
26223;SDS011;14820;48.682;8.890;2022-09-21T03:07:47;6.95;;;2.92;;
26223;SDS011;14820;48.682;8.890;2022-09-21T03:10:12;4.72;;;2.97;;
26223;SDS011;14820;48.682;8.890;2022-09-21T03:12:38;3.85;;;2.83;;
26223;SDS011;14820;48.682;8.890;2022-09-21T03:15:04;5.30;;;3.10;;
26223;SDS011;14820;48.682;8.890;2022-09-21T03:17:30;5.70;;;3.55;;
26223;SDS011;14820;48.682;8.890;2022-09-21T03:19:55;4.88;;;2.92;;
26223;SDS011;14820;48.682;8.890;2022-09-21T03:22:21;6.82;;;3.92;;
26223;SDS011;14820;48.682;8.890;2022-09-21T03:24:48;6.50;;;3.28;;
26223;SDS011;14820;48.682;8.890;2022-09-21T03:27:15;4.18;;;3.10;;
26223;SDS011;14820;48.682;8.890;2022-09-21T03:29:43;5.45;;;3.20;;
26223;SDS011;14820;48.682;8.890;2022-09-21T03:32:09;4.10;;;2.97;;
26223;SDS011;14820;48.682;8.890;2022-09-21T03:34:35;7.18;;;3.13;;
26223;SDS011;14820;48.682;8.890;2022-09-21T03:37:01;5.75;;;2.80;;
26223;SDS011;14820;48.682;8.890;2022-09-21T03:39:29;5.75;;;3.35;;
26223;SDS011;14820;48.682;8.890;2022-09-21T03:42:14;5.80;;;3.30;;
26223;SDS011;14820;48.682;8.890;2022-09-21T03:44:39;7.15;;;3.13;;
26223;SDS011;14820;48.682;8.890;2022-09-21T03:47:05;7.90;;;3.53;;
26223;SDS011;14820;48.682;8.890;2022-09-21T03:49:31;8.02;;;3.00;;
26223;SDS011;14820;48.682;8.890;2022-09-21T03:51:58;9.07;;;2.90;;
26223;SDS011;14820;48.682;8.890;2022-09-21T03:54:24;5.13;;;2.92;;
26223;SDS011;14820;48.682;8.890;2022-09-21T03:56:50;6.68;;;3.22;;
26223;SDS011;14820;48.682;8.890;2022-09-21T03:59:15;6.68;;;3.20;;
26223;SDS011;14820;48.682;8.890;2022-09-21T04:01:41;6.50;;;2.92;;
26223;SDS011;14820;48.682;8.890;2022-09-21T04:04:07;5.45;;;3.33;;
26223;SDS011;14820;48.682;8.890;2022-09-21T04:06:33;5.20;;;3.00;;
26223;SDS011;14820;48.682;8.890;2022-09-21T04:08:59;6.18;;;2.90;;
26223;SDS011;14820;48.682;8.890;2022-09-21T04:11:27;14.50;;;5.82;;
26223;SDS011;14820;48.682;8.890;2022-09-21T04:13:52;8.35;;;4.70;;
26223;SDS011;14820;48.682;8.890;2022-09-21T04:16:22;5.40;;;3.00;;
26223;SDS011;14820;48.682;8.890;2022-09-21T04:18:48;13.13;;;6.90;;
26223;SDS011;14820;48.682;8.890;2022-09-21T04:21:18;11.50;;;6.97;;
26223;SDS011;14820;48.682;8.890;2022-09-21T04:23:45;6.85;;;5.32;;
26223;SDS011;14820;48.682;8.890;2022-09-21T04:26:27;7.50;;;5.07;;
26223;SDS011;14820;48.682;8.890;2022-09-21T04:28:54;8.25;;;5.57;;
26223;SDS011;14820;48.682;8.890;2022-09-21T04:31:21;19.95;;;13.43;;
26223;SDS011;14820;48.682;8.890;2022-09-21T04:33:48;7.40;;;5.40;;
26223;SDS011;14820;48.682;8.890;2022-09-21T04:36:15;7.15;;;4.53;;
26223;SDS011;14820;48.682;8.890;2022-09-21T04:38:42;5.03;;;3.63;;
26223;SDS011;14820;48.682;8.890;2022-09-21T04:41:07;6.53;;;3.85;;
26223;SDS011;14820;48.682;8.890;2022-09-21T04:43:33;6.78;;;3.95;;
26223;SDS011;14820;48.682;8.890;2022-09-21T04:46:06;4.90;;;3.03;;
26223;SDS011;14820;48.682;8.890;2022-09-21T04:48:33;5.55;;;3.38;;
26223;SDS011;14820;48.682;8.890;2022-09-21T04:50:59;12.63;;;3.60;;
26223;SDS011;14820;48.682;8.890;2022-09-21T04:53:24;6.10;;;3.33;;
26223;SDS011;14820;48.682;8.890;2022-09-21T04:55:50;5.10;;;3.42;;
26223;SDS011;14820;48.682;8.890;2022-09-21T04:58:16;8.90;;;3.33;;
26223;SDS011;14820;48.682;8.890;2022-09-21T05:00:42;7.35;;;3.67;;
26223;SDS011;14820;48.682;8.890;2022-09-21T05:03:08;5.35;;;2.95;;
26223;SDS011;14820;48.682;8.890;2022-09-21T05:05:33;3.97;;;2.97;;
26223;SDS011;14820;48.682;8.890;2022-09-21T05:07:59;6.88;;;2.97;;
26223;SDS011;14820;48.682;8.890;2022-09-21T05:10:25;11.77;;;3.00;;
26223;SDS011;14820;48.682;8.890;2022-09-21T05:12:50;10.50;;;3.00;;
26223;SDS011;14820;48.682;8.890;2022-09-21T05:15:16;5.13;;;2.88;;
26223;SDS011;14820;48.682;8.890;2022-09-21T05:17:42;3.15;;;2.40;;
26223;SDS011;14820;48.682;8.890;2022-09-21T05:20:08;5.95;;;3.10;;
26223;SDS011;14820;48.682;8.890;2022-09-21T05:22:35;6.40;;;3.00;;
26223;SDS011;14820;48.682;8.890;2022-09-21T05:25:01;3.13;;;2.78;;
26223;SDS011;14820;48.682;8.890;2022-09-21T05:27:27;4.05;;;3.30;;
26223;SDS011;14820;48.682;8.890;2022-09-21T05:29:53;5.53;;;3.40;;
26223;SDS011;14820;48.682;8.890;2022-09-21T05:40:42;7.03;;;3.45;;
26223;SDS011;14820;48.682;8.890;2022-09-21T05:43:08;6.53;;;3.70;;
26223;SDS011;14820;48.682;8.890;2022-09-21T05:45:36;6.43;;;3.65;;
26223;SDS011;14820;48.682;8.890;2022-09-21T05:48:11;6.00;;;3.63;;
26223;SDS011;14820;48.682;8.890;2022-09-21T05:53:21;5.63;;;3.47;;
26223;SDS011;14820;48.682;8.890;2022-09-21T06:01:50;6.97;;;4.40;;
26223;SDS011;14820;48.682;8.890;2022-09-21T06:04:30;6.32;;;4.00;;
26223;SDS011;14820;48.682;8.890;2022-09-21T06:06:56;6.15;;;3.88;;
26223;SDS011;14820;48.682;8.890;2022-09-21T06:09:22;6.38;;;3.67;;
26223;SDS011;14820;48.682;8.890;2022-09-21T06:11:49;7.25;;;3.75;;
26223;SDS011;14820;48.682;8.890;2022-09-21T06:14:15;6.75;;;3.78;;
26223;SDS011;14820;48.682;8.890;2022-09-21T06:16:48;7.43;;;3.88;;
26223;SDS011;14820;48.682;8.890;2022-09-21T06:19:14;9.55;;;4.15;;
26223;SDS011;14820;48.682;8.890;2022-09-21T06:21:40;8.90;;;4.65;;
26223;SDS011;14820;48.682;8.890;2022-09-21T06:24:07;8.68;;;4.60;;
26223;SDS011;14820;48.682;8.890;2022-09-21T06:26:33;7.70;;;5.00;;
26223;SDS011;14820;48.682;8.890;2022-09-21T06:28:59;10.80;;;5.93;;
26223;SDS011;14820;48.682;8.890;2022-09-21T06:31:25;10.85;;;6.20;;
26223;SDS011;14820;48.682;8.890;2022-09-21T06:33:51;14.30;;;6.50;;
26223;SDS011;14820;48.682;8.890;2022-09-21T06:36:17;12.77;;;6.20;;
26223;SDS011;14820;48.682;8.890;2022-09-21T06:38:43;11.20;;;5.47;;
26223;SDS011;14820;48.682;8.890;2022-09-21T06:41:08;12.07;;;5.68;;
26223;SDS011;14820;48.682;8.890;2022-09-21T06:43:34;12.82;;;5.20;;
26223;SDS011;14820;48.682;8.890;2022-09-21T06:46:01;8.13;;;5.65;;
26223;SDS011;14820;48.682;8.890;2022-09-21T06:48:28;10.90;;;5.38;;
26223;SDS011;14820;48.682;8.890;2022-09-21T06:51:01;7.30;;;4.93;;
26223;SDS011;14820;48.682;8.890;2022-09-21T06:53:29;8.63;;;5.75;;
26223;SDS011;14820;48.682;8.890;2022-09-21T06:56:03;11.73;;;6.10;;
26223;SDS011;14820;48.682;8.890;2022-09-21T06:58:30;10.02;;;5.63;;
26223;SDS011;14820;48.682;8.890;2022-09-21T07:01:03;10.93;;;5.55;;
26223;SDS011;14820;48.682;8.890;2022-09-21T07:03:30;8.35;;;5.47;;
26223;SDS011;14820;48.682;8.890;2022-09-21T07:05:56;9.98;;;6.05;;
26223;SDS011;14820;48.682;8.890;2022-09-21T07:08:21;10.52;;;6.38;;
26223;SDS011;14820;48.682;8.890;2022-09-21T07:10:47;17.83;;;9.65;;
26223;SDS011;14820;48.682;8.890;2022-09-21T07:13:17;30.92;;;16.15;;
26223;SDS011;14820;48.682;8.890;2022-09-21T07:15:43;33.80;;;15.15;;
26223;SDS011;14820;48.682;8.890;2022-09-21T07:18:12;25.50;;;13.02;;
26223;SDS011;14820;48.682;8.890;2022-09-21T07:20:38;28.73;;;12.35;;
26223;SDS011;14820;48.682;8.890;2022-09-21T07:23:13;18.90;;;11.63;;
26223;SDS011;14820;48.682;8.890;2022-09-21T07:25:41;15.70;;;8.75;;
26223;SDS011;14820;48.682;8.890;2022-09-21T07:28:11;15.10;;;7.78;;
26223;SDS011;14820;48.682;8.890;2022-09-21T07:30:37;12.63;;;6.78;;
26223;SDS011;14820;48.682;8.890;2022-09-21T07:33:04;8.98;;;6.30;;
26223;SDS011;14820;48.682;8.890;2022-09-21T07:35:30;12.43;;;7.30;;
26223;SDS011;14820;48.682;8.890;2022-09-21T07:37:57;11.27;;;6.13;;
26223;SDS011;14820;48.682;8.890;2022-09-21T07:40:23;14.32;;;6.25;;
26223;SDS011;14820;48.682;8.890;2022-09-21T07:42:49;11.07;;;6.18;;
26223;SDS011;14820;48.682;8.890;2022-09-21T07:45:15;10.63;;;6.70;;
26223;SDS011;14820;48.682;8.890;2022-09-21T07:47:41;13.68;;;7.10;;
26223;SDS011;14820;48.682;8.890;2022-09-21T07:50:07;9.27;;;6.32;;
26223;SDS011;14820;48.682;8.890;2022-09-21T07:52:33;11.80;;;6.75;;
26223;SDS011;14820;48.682;8.890;2022-09-21T07:54:59;11.20;;;5.60;;
26223;SDS011;14820;48.682;8.890;2022-09-21T07:57:24;9.38;;;6.20;;
26223;SDS011;14820;48.682;8.890;2022-09-21T08:00:10;9.02;;;6.25;;
26223;SDS011;14820;48.682;8.890;2022-09-21T08:02:36;9.02;;;5.40;;
26223;SDS011;14820;48.682;8.890;2022-09-21T08:05:02;13.13;;;5.75;;
26223;SDS011;14820;48.682;8.890;2022-09-21T08:07:27;9.63;;;6.10;;
26223;SDS011;14820;48.682;8.890;2022-09-21T08:09:53;8.82;;;4.93;;
26223;SDS011;14820;48.682;8.890;2022-09-21T08:12:19;9.88;;;4.93;;
26223;SDS011;14820;48.682;8.890;2022-09-21T08:14:45;6.22;;;4.40;;
26223;SDS011;14820;48.682;8.890;2022-09-21T08:17:12;7.15;;;4.30;;
26223;SDS011;14820;48.682;8.890;2022-09-21T08:19:38;10.82;;;4.13;;
26223;SDS011;14820;48.682;8.890;2022-09-21T08:22:04;5.28;;;4.03;;
26223;SDS011;14820;48.682;8.890;2022-09-21T08:24:30;9.20;;;4.35;;
26223;SDS011;14820;48.682;8.890;2022-09-21T08:26:57;7.38;;;4.25;;
26223;SDS011;14820;48.682;8.890;2022-09-21T08:29:26;8.60;;;4.55;;
26223;SDS011;14820;48.682;8.890;2022-09-21T08:31:51;9.48;;;4.57;;
26223;SDS011;14820;48.682;8.890;2022-09-21T08:34:17;7.13;;;4.35;;
26223;SDS011;14820;48.682;8.890;2022-09-21T08:36:43;10.18;;;4.28;;
26223;SDS011;14820;48.682;8.890;2022-09-21T08:39:10;9.80;;;3.67;;
26223;SDS011;14820;48.682;8.890;2022-09-21T08:41:56;7.50;;;3.70;;
26223;SDS011;14820;48.682;8.890;2022-09-21T08:49:38;10.82;;;4.05;;
26223;SDS011;14820;48.682;8.890;2022-09-21T08:52:11;4.65;;;3.30;;
26223;SDS011;14820;48.682;8.890;2022-09-21T08:54:50;5.03;;;2.90;;
26223;SDS011;14820;48.682;8.890;2022-09-21T08:57:32;7.38;;;2.25;;
26223;SDS011;14820;48.682;8.890;2022-09-21T08:59:59;2.92;;;1.80;;
26223;SDS011;14820;48.682;8.890;2022-09-21T09:07:47;4.10;;;1.60;;
26223;SDS011;14820;48.682;8.890;2022-09-21T09:10:36;3.83;;;1.50;;
26223;SDS011;14820;48.682;8.890;2022-09-21T09:18:53;4.78;;;1.40;;
26223;SDS011;14820;48.682;8.890;2022-09-21T09:21:39;3.17;;;1.45;;
26223;SDS011;14820;48.682;8.890;2022-09-21T09:26:49;3.08;;;1.33;;
26223;SDS011;14820;48.682;8.890;2022-09-21T09:32:22;1.75;;;0.80;;
26223;SDS011;14820;48.682;8.890;2022-09-21T09:38:28;2.25;;;0.85;;
26223;SDS011;14820;48.682;8.890;2022-09-21T09:49:12;2.67;;;0.90;;
26223;SDS011;14820;48.682;8.890;2022-09-21T09:52:03;1.70;;;0.88;;
26223;SDS011;14820;48.682;8.890;2022-09-21T09:54:32;3.05;;;0.90;;
26223;SDS011;14820;48.682;8.890;2022-09-21T09:57:00;3.55;;;1.05;;
26223;SDS011;14820;48.682;8.890;2022-09-21T09:59:33;2.63;;;0.95;;
26223;SDS011;14820;48.682;8.890;2022-09-21T10:07:32;1.60;;;0.77;;
26223;SDS011;14820;48.682;8.890;2022-09-21T10:09:58;2.40;;;0.80;;
26223;SDS011;14820;48.682;8.890;2022-09-21T10:12:24;1.10;;;0.90;;
26223;SDS011;14820;48.682;8.890;2022-09-21T10:14:52;4.95;;;1.17;;
26223;SDS011;14820;48.682;8.890;2022-09-21T10:17:24;3.17;;;0.93;;
26223;SDS011;14820;48.682;8.890;2022-09-21T10:20:00;0.80;;;0.80;;
26223;SDS011;14820;48.682;8.890;2022-09-21T10:22:30;3.80;;;0.95;;
26223;SDS011;14820;48.682;8.890;2022-09-21T10:24:56;1.90;;;0.75;;
26223;SDS011;14820;48.682;8.890;2022-09-21T10:27:34;2.88;;;0.70;;
26223;SDS011;14820;48.682;8.890;2022-09-21T10:30:02;4.00;;;1.23;;
26223;SDS011;14820;48.682;8.890;2022-09-21T10:32:28;2.85;;;0.98;;
26223;SDS011;14820;48.682;8.890;2022-09-21T10:37:33;3.95;;;0.80;;
26223;SDS011;14820;48.682;8.890;2022-09-21T10:42:47;1.85;;;0.75;;
26223;SDS011;14820;48.682;8.890;2022-09-21T10:45:15;4.55;;;0.88;;
26223;SDS011;14820;48.682;8.890;2022-09-21T10:47:43;1.85;;;1.00;;
26223;SDS011;14820;48.682;8.890;2022-09-21T10:50:26;3.63;;;0.90;;
26223;SDS011;14820;48.682;8.890;2022-09-21T10:52:59;1.60;;;0.93;;
26223;SDS011;14820;48.682;8.890;2022-09-21T10:55:37;2.38;;;0.98;;
26223;SDS011;14820;48.682;8.890;2022-09-21T10:58:09;1.83;;;1.00;;
26223;SDS011;14820;48.682;8.890;2022-09-21T11:00:43;2.22;;;1.00;;
26223;SDS011;14820;48.682;8.890;2022-09-21T11:06:02;4.70;;;1.00;;
26223;SDS011;14820;48.682;8.890;2022-09-21T11:08:58;1.63;;;1.00;;
26223;SDS011;14820;48.682;8.890;2022-09-21T11:11:33;2.88;;;0.95;;
26223;SDS011;14820;48.682;8.890;2022-09-21T11:19:32;1.33;;;0.80;;
26223;SDS011;14820;48.682;8.890;2022-09-21T11:24:51;1.30;;;0.80;;
26223;SDS011;14820;48.682;8.890;2022-09-21T11:27:40;3.63;;;0.95;;
26223;SDS011;14820;48.682;8.890;2022-09-21T11:30:15;1.92;;;0.98;;
26223;SDS011;14820;48.682;8.890;2022-09-21T11:39:26;2.67;;;1.10;;
26223;SDS011;14820;48.682;8.890;2022-09-21T11:44:09;3.13;;;1.05;;
26223;SDS011;14820;48.682;8.890;2022-09-21T11:55:32;3.33;;;1.33;;
26223;SDS011;14820;48.682;8.890;2022-09-21T12:04:04;3.00;;;1.05;;
26223;SDS011;14820;48.682;8.890;2022-09-21T12:06:57;2.92;;;0.90;;
26223;SDS011;14820;48.682;8.890;2022-09-21T12:15:13;1.63;;;1.00;;
26223;SDS011;14820;48.682;8.890;2022-09-21T12:17:52;0.85;;;0.77;;
26223;SDS011;14820;48.682;8.890;2022-09-21T12:23:07;1.95;;;0.93;;
26223;SDS011;14820;48.682;8.890;2022-09-21T12:25:40;1.50;;;0.77;;
26223;SDS011;14820;48.682;8.890;2022-09-21T12:33:55;1.75;;;1.08;;
26223;SDS011;14820;48.682;8.890;2022-09-21T12:36:32;4.00;;;0.90;;
26223;SDS011;14820;48.682;8.890;2022-09-21T12:47:01;1.85;;;1.00;;
26223;SDS011;14820;48.682;8.890;2022-09-21T12:49:45;2.20;;;1.00;;
26223;SDS011;14820;48.682;8.890;2022-09-21T12:52:17;5.43;;;1.10;;
26223;SDS011;14820;48.682;8.890;2022-09-21T12:54:49;3.42;;;1.05;;
26223;SDS011;14820;48.682;8.890;2022-09-21T12:57:31;1.25;;;0.90;;
26223;SDS011;14820;48.682;8.890;2022-09-21T13:09:00;5.30;;;1.10;;
26223;SDS011;14820;48.682;8.890;2022-09-21T13:11:27;1.23;;;0.90;;
26223;SDS011;14820;48.682;8.890;2022-09-21T13:13:58;1.10;;;0.80;;
26223;SDS011;14820;48.682;8.890;2022-09-21T13:16:36;2.03;;;0.90;;
26223;SDS011;14820;48.682;8.890;2022-09-21T13:21:38;2.63;;;1.30;;
26223;SDS011;14820;48.682;8.890;2022-09-21T13:24:05;1.20;;;0.80;;
26223;SDS011;14820;48.682;8.890;2022-09-21T13:26:50;1.48;;;0.82;;
26223;SDS011;14820;48.682;8.890;2022-09-21T13:34:33;1.35;;;0.88;;
26223;SDS011;14820;48.682;8.890;2022-09-21T13:44:57;1.48;;;0.80;;
26223;SDS011;14820;48.682;8.890;2022-09-21T13:47:35;2.42;;;1.02;;
26223;SDS011;14820;48.682;8.890;2022-09-21T13:53:07;2.35;;;0.80;;
26223;SDS011;14820;48.682;8.890;2022-09-21T13:56:00;0.90;;;0.70;;
26223;SDS011;14820;48.682;8.890;2022-09-21T13:58:33;1.60;;;0.80;;
26223;SDS011;14820;48.682;8.890;2022-09-21T14:06:23;3.47;;;0.90;;
26223;SDS011;14820;48.682;8.890;2022-09-21T14:08:56;1.13;;;0.70;;
26223;SDS011;14820;48.682;8.890;2022-09-21T14:11:28;2.00;;;0.75;;
26223;SDS011;14820;48.682;8.890;2022-09-21T14:14:02;0.75;;;0.68;;
26223;SDS011;14820;48.682;8.890;2022-09-21T14:30:01;3.30;;;0.90;;
26223;SDS011;14820;48.682;8.890;2022-09-21T14:32:32;1.75;;;0.60;;
26223;SDS011;14820;48.682;8.890;2022-09-21T14:35:17;0.93;;;0.60;;
26223;SDS011;14820;48.682;8.890;2022-09-21T14:37:46;5.80;;;1.02;;
26223;SDS011;14820;48.682;8.890;2022-09-21T14:42:42;1.45;;;0.70;;
26223;SDS011;14820;48.682;8.890;2022-09-21T14:45:09;5.13;;;1.15;;
26223;SDS011;14820;48.682;8.890;2022-09-21T14:50:19;2.63;;;0.80;;
26223;SDS011;14820;48.682;8.890;2022-09-21T14:53:22;2.13;;;0.60;;
26223;SDS011;14820;48.682;8.890;2022-09-21T15:01:34;2.60;;;0.90;;
26223;SDS011;14820;48.682;8.890;2022-09-21T15:07:01;1.58;;;0.80;;
26223;SDS011;14820;48.682;8.890;2022-09-21T15:16:10;1.90;;;1.00;;
26223;SDS011;14820;48.682;8.890;2022-09-21T15:18:48;1.95;;;0.90;;
26223;SDS011;14820;48.682;8.890;2022-09-21T15:21:20;1.50;;;0.90;;
26223;SDS011;14820;48.682;8.890;2022-09-21T15:23:56;3.45;;;0.90;;
26223;SDS011;14820;48.682;8.890;2022-09-21T15:28:55;2.88;;;0.80;;
26223;SDS011;14820;48.682;8.890;2022-09-21T15:31:23;1.45;;;0.80;;
26223;SDS011;14820;48.682;8.890;2022-09-21T15:33:50;1.52;;;0.77;;
26223;SDS011;14820;48.682;8.890;2022-09-21T15:36:25;1.00;;;0.70;;
26223;SDS011;14820;48.682;8.890;2022-09-21T15:38:53;2.10;;;1.02;;
26223;SDS011;14820;48.682;8.890;2022-09-21T15:41:46;1.27;;;0.70;;
26223;SDS011;14820;48.682;8.890;2022-09-21T15:44:15;1.10;;;0.80;;
26223;SDS011;14820;48.682;8.890;2022-09-21T15:46:42;1.23;;;0.82;;
26223;SDS011;14820;48.682;8.890;2022-09-21T15:49:12;3.30;;;0.73;;
26223;SDS011;14820;48.682;8.890;2022-09-21T15:51:40;1.38;;;0.85;;
26223;SDS011;14820;48.682;8.890;2022-09-21T15:54:16;1.17;;;0.65;;
26223;SDS011;14820;48.682;8.890;2022-09-21T15:57:04;1.15;;;0.77;;
26223;SDS011;14820;48.682;8.890;2022-09-21T15:59:48;1.77;;;0.70;;
26223;SDS011;14820;48.682;8.890;2022-09-21T16:02:15;0.82;;;0.77;;
26223;SDS011;14820;48.682;8.890;2022-09-21T16:04:47;2.88;;;0.90;;
26223;SDS011;14820;48.682;8.890;2022-09-21T16:07:25;4.13;;;1.08;;
26223;SDS011;14820;48.682;8.890;2022-09-21T16:09:56;2.88;;;0.90;;
26223;SDS011;14820;48.682;8.890;2022-09-21T16:15:17;2.33;;;0.90;;
26223;SDS011;14820;48.682;8.890;2022-09-21T16:18:09;1.00;;;0.80;;
26223;SDS011;14820;48.682;8.890;2022-09-21T16:23:20;1.65;;;0.80;;
26223;SDS011;14820;48.682;8.890;2022-09-21T16:25:56;1.00;;;0.70;;
26223;SDS011;14820;48.682;8.890;2022-09-21T16:30:59;1.90;;;0.90;;
26223;SDS011;14820;48.682;8.890;2022-09-21T16:38:44;1.95;;;0.88;;
26223;SDS011;14820;48.682;8.890;2022-09-21T16:41:23;2.15;;;1.33;;
26223;SDS011;14820;48.682;8.890;2022-09-21T16:44:11;2.20;;;1.27;;
26223;SDS011;14820;48.682;8.890;2022-09-21T16:46:47;3.13;;;1.67;;
26223;SDS011;14820;48.682;8.890;2022-09-21T16:49:21;3.08;;;1.38;;
26223;SDS011;14820;48.682;8.890;2022-09-21T16:51:49;1.33;;;0.98;;
26223;SDS011;14820;48.682;8.890;2022-09-21T16:54:18;1.52;;;1.10;;
26223;SDS011;14820;48.682;8.890;2022-09-21T16:56:50;1.42;;;0.80;;
26223;SDS011;14820;48.682;8.890;2022-09-21T16:59:19;2.03;;;1.10;;
26223;SDS011;14820;48.682;8.890;2022-09-21T17:01:51;3.42;;;1.30;;
26223;SDS011;14820;48.682;8.890;2022-09-21T17:04:19;2.80;;;1.17;;
26223;SDS011;14820;48.682;8.890;2022-09-21T17:06:47;2.08;;;1.13;;
26223;SDS011;14820;48.682;8.890;2022-09-21T17:09:18;1.27;;;0.90;;
26223;SDS011;14820;48.682;8.890;2022-09-21T17:11:49;1.40;;;1.00;;
26223;SDS011;14820;48.682;8.890;2022-09-21T17:14:16;1.65;;;1.10;;
26223;SDS011;14820;48.682;8.890;2022-09-21T17:16:43;1.25;;;0.90;;
26223;SDS011;14820;48.682;8.890;2022-09-21T17:19:11;1.20;;;1.00;;
26223;SDS011;14820;48.682;8.890;2022-09-21T17:21:37;2.30;;;1.30;;
26223;SDS011;14820;48.682;8.890;2022-09-21T17:24:03;2.15;;;1.33;;
26223;SDS011;14820;48.682;8.890;2022-09-21T17:26:29;1.35;;;1.00;;
26223;SDS011;14820;48.682;8.890;2022-09-21T17:28:56;4.20;;;1.00;;
26223;SDS011;14820;48.682;8.890;2022-09-21T17:31:22;2.20;;;1.00;;
26223;SDS011;14820;48.682;8.890;2022-09-21T17:33:48;1.52;;;1.17;;
26223;SDS011;14820;48.682;8.890;2022-09-21T17:36:15;2.35;;;1.20;;
26223;SDS011;14820;48.682;8.890;2022-09-21T17:38:42;4.35;;;2.63;;
26223;SDS011;14820;48.682;8.890;2022-09-21T17:41:13;5.60;;;2.38;;
26223;SDS011;14820;48.682;8.890;2022-09-21T17:46:51;13.00;;;9.38;;
26223;SDS011;14820;48.682;8.890;2022-09-21T17:49:23;12.00;;;6.75;;
26223;SDS011;14820;48.682;8.890;2022-09-21T17:51:49;9.25;;;6.13;;
26223;SDS011;14820;48.682;8.890;2022-09-21T17:54:34;14.43;;;9.83;;
26223;SDS011;14820;48.682;8.890;2022-09-21T17:59:46;2.63;;;1.67;;
26223;SDS011;14820;48.682;8.890;2022-09-21T18:02:22;4.18;;;3.58;;
26223;SDS011;14820;48.682;8.890;2022-09-21T18:04:50;24.95;;;18.60;;
26223;SDS011;14820;48.682;8.890;2022-09-21T18:07:23;4.97;;;3.92;;
26223;SDS011;14820;48.682;8.890;2022-09-21T18:09:49;10.45;;;7.55;;
26223;SDS011;14820;48.682;8.890;2022-09-21T18:12:26;14.45;;;9.82;;
26223;SDS011;14820;48.682;8.890;2022-09-21T18:15:09;3.08;;;2.40;;
26223;SDS011;14820;48.682;8.890;2022-09-21T18:20:45;5.05;;;2.58;;
26223;SDS011;14820;48.682;8.890;2022-09-21T18:25:46;11.70;;;5.72;;
26223;SDS011;14820;48.682;8.890;2022-09-21T18:31:02;10.50;;;3.60;;
26223;SDS011;14820;48.682;8.890;2022-09-21T18:33:55;8.18;;;3.90;;
26223;SDS011;14820;48.682;8.890;2022-09-21T18:36:42;8.38;;;4.75;;
26223;SDS011;14820;48.682;8.890;2022-09-21T18:39:35;8.77;;;5.00;;
26223;SDS011;14820;48.682;8.890;2022-09-21T18:42:32;6.95;;;4.35;;
26223;SDS011;14820;48.682;8.890;2022-09-21T18:45:02;7.07;;;4.72;;
26223;SDS011;14820;48.682;8.890;2022-09-21T18:55:45;10.45;;;4.72;;
26223;SDS011;14820;48.682;8.890;2022-09-21T18:58:11;10.95;;;5.35;;
26223;SDS011;14820;48.682;8.890;2022-09-21T19:00:38;7.22;;;4.57;;
26223;SDS011;14820;48.682;8.890;2022-09-21T19:03:05;9.48;;;5.40;;
26223;SDS011;14820;48.682;8.890;2022-09-21T19:05:35;10.13;;;5.45;;
26223;SDS011;14820;48.682;8.890;2022-09-21T19:08:24;9.32;;;4.70;;
26223;SDS011;14820;48.682;8.890;2022-09-21T19:30:10;6.15;;;4.03;;
26223;SDS011;14820;48.682;8.890;2022-09-21T19:32:50;9.95;;;4.93;;
26223;SDS011;14820;48.682;8.890;2022-09-21T19:35:23;42.85;;;27.73;;
26223;SDS011;14820;48.682;8.890;2022-09-21T19:37:56;137.13;;;89.18;;